Time;durP1;ratioP1;P1;durP2;ratioP2;P2;SDS_P1;SDS_P2;PMS_P1;PMS_P2;Temp;Humidity;BMP_temperature;BMP_pressure;BME280_temperature;BME280_humidity;BME280_pressure;Samples;Min_cycle;Max_cycle;Signal;HPM_P1;HPM_P2
2022/07/02 00:01:23;;;;;;;5.90;3.53;;;11.30;99.90;;;;;;4838250;29;20062;-79
2022/07/02 00:04:02;;;;;;;10.50;3.28;;;11.20;99.90;;;;;;4822294;29;20565;-79
2022/07/02 00:06:31;;;;;;;2.55;2.35;;;11.00;99.90;;;;;;4823075;29;20050;-79
2022/07/02 00:09:00;;;;;;;8.88;3.85;;;10.90;99.90;;;;;;4851236;29;20053;-79
2022/07/02 00:11:28;;;;;;;5.70;3.28;;;10.90;99.90;;;;;;4823027;29;20046;-79
2022/07/02 00:13:57;;;;;;;5.35;3.42;;;10.90;99.90;;;;;;4855651;29;20050;-79
2022/07/02 00:16:33;;;;;;;13.45;4.50;;;10.90;99.90;;;;;;4842226;29;20050;-79
2022/07/02 00:19:15;;;;;;;2.65;2.45;;;10.90;99.90;;;;;;4867912;29;20050;-79
2022/07/02 00:21:44;;;;;;;21.17;5.03;;;10.90;99.90;;;;;;4837829;29;20392;-78
2022/07/02 00:24:12;;;;;;;13.98;4.07;;;10.90;99.90;;;;;;4852560;29;20050;-78
2022/07/02 00:26:45;;;;;;;8.68;3.08;;;10.80;99.90;;;;;;4840266;29;20054;-79
2022/07/02 00:29:42;;;;;;;3.03;2.63;;;10.90;99.90;;;;;;4841642;29;20049;-79
2022/07/02 00:32:10;;;;;;;10.60;2.85;;;10.90;99.90;;;;;;4854308;29;20053;-79
2022/07/02 00:34:39;;;;;;;7.90;4.95;;;10.90;99.90;;;;;;4839677;29;20053;-79
2022/07/02 00:37:08;;;;;;;6.05;3.80;;;10.90;99.90;;;;;;4841800;29;20053;-79
2022/07/02 00:39:36;;;;;;;8.80;4.28;;;10.80;99.90;;;;;;4840843;29;20084;-78
2022/07/02 00:42:06;;;;;;;6.53;5.32;;;10.80;99.90;;;;;;4854985;29;20058;-78
2022/07/02 00:44:35;;;;;;;11.73;4.32;;;10.80;99.90;;;;;;4855415;29;20054;-79
2022/07/02 00:47:06;;;;;;;11.35;4.13;;;10.70;99.90;;;;;;4854442;29;20057;-78
2022/07/02 00:49:36;;;;;;;2.40;2.20;;;10.60;99.90;;;;;;4854929;29;20057;-78
2022/07/02 00:52:05;;;;;;;7.10;4.22;;;10.60;99.90;;;;;;4855238;29;20053;-78
2022/07/02 00:54:38;;;;;;;9.65;3.58;;;10.60;99.90;;;;;;4840317;29;20050;-79
2022/07/02 00:57:07;;;;;;;2.60;2.40;;;10.50;99.90;;;;;;4841113;29;20057;-78
2022/07/02 00:59:36;;;;;;;2.03;1.92;;;10.50;99.90;;;;;;4839392;29;20053;-79
2022/07/02 01:02:07;;;;;;;8.55;4.10;;;10.50;99.90;;;;;;4854557;29;20054;-79
2022/07/02 01:04:35;;;;;;;4.20;2.78;;;10.50;99.90;;;;;;4840131;29;20050;-79
2022/07/02 01:07:09;;;;;;;2.20;2.10;;;10.50;99.90;;;;;;4840207;29;20053;-79
2022/07/02 01:12:28;;;;;;;4.57;2.63;;;10.40;99.90;;;;;;4855730;29;20461;-78
2022/07/02 01:14:57;;;;;;;2.67;2.45;;;10.30;99.90;;;;;;4840401;29;20042;-79
2022/07/02 01:17:25;;;;;;;2.90;2.70;;;10.30;99.90;;;;;;4854255;29;20416;-78
2022/07/02 01:19:59;;;;;;;2.00;1.88;;;10.30;99.90;;;;;;4839259;29;20559;-78
2022/07/02 01:22:38;;;;;;;2.70;2.50;;;10.40;99.90;;;;;;4838591;29;20042;-78
2022/07/02 01:25:08;;;;;;;11.25;4.20;;;10.40;99.90;;;;;;4838403;29;20717;-78
2022/07/02 01:27:36;;;;;;;2.40;2.30;;;10.40;99.90;;;;;;4838767;29;20062;-79
2022/07/02 01:30:06;;;;;;;2.10;2.00;;;10.40;99.90;;;;;;4838420;29;20061;-79
2022/07/02 01:32:34;;;;;;;40.17;4.53;;;10.40;99.90;;;;;;4839846;29;20061;-78
2022/07/02 01:35:10;;;;;;;2.50;2.33;;;10.40;99.90;;;;;;4853432;29;20054;-78
2022/07/02 01:37:39;;;;;;;2.70;2.50;;;10.30;99.90;;;;;;4839723;29;20085;-78
2022/07/02 01:40:09;;;;;;;9.48;3.30;;;10.20;99.90;;;;;;4839067;29;20409;-78
2022/07/02 01:42:37;;;;;;;3.10;2.90;;;10.20;99.90;;;;;;4839574;29;20096;-78
2022/07/02 01:45:05;;;;;;;9.02;4.25;;;10.10;99.90;;;;;;4839909;29;20401;-78
2022/07/02 01:47:33;;;;;;;5.70;3.78;;;10.10;99.90;;;;;;4839507;29;20057;-78
2022/07/02 01:50:01;;;;;;;29.00;6.28;;;10.00;99.90;;;;;;4838875;29;20050;-79
2022/07/02 01:52:29;;;;;;;3.58;2.97;;;10.00;99.90;;;;;;4840282;29;20053;-79
2022/07/02 01:54:56;;;;;;;3.25;2.95;;;10.00;99.90;;;;;;4839465;29;20494;-79
2022/07/02 01:57:24;;;;;;;3.22;2.97;;;10.00;99.90;;;;;;4839042;29;20707;-78
2022/07/02 01:59:52;;;;;;;3.00;2.58;;;10.00;99.90;;;;;;4853141;29;20057;-78
2022/07/02 02:02:20;;;;;;;3.97;3.53;;;10.00;99.90;;;;;;4838420;29;20065;-78
2022/07/02 02:04:51;;;;;;;22.90;5.70;;;10.00;99.90;;;;;;4839446;29;20062;-78
2022/07/02 02:07:19;;;;;;;18.27;6.75;;;10.00;99.90;;;;;;4853320;29;20240;-79
2022/07/02 02:09:47;;;;;;;16.35;5.22;;;9.90;99.90;;;;;;4852598;29;20050;-78
2022/07/02 02:12:15;;;;;;;2.60;2.40;;;9.90;99.90;;;;;;4854079;29;20046;-79
2022/07/02 02:14:50;;;;;;;3.05;2.55;;;9.90;99.90;;;;;;4853379;29;20054;-78
2022/07/02 02:17:18;;;;;;;2.85;2.65;;;9.90;99.90;;;;;;4839357;29;20053;-79
2022/07/02 02:19:45;;;;;;;2.63;2.42;;;9.80;99.90;;;;;;4822379;29;20057;-79
2022/07/02 02:22:13;;;;;;;2.22;2.03;;;9.80;99.90;;;;;;4837965;29;20053;-78
2022/07/02 02:24:44;;;;;;;2.83;2.63;;;9.90;99.90;;;;;;4822717;29;20058;-79
2022/07/02 02:27:18;;;;;;;13.10;3.72;;;9.90;99.90;;;;;;4839296;29;20618;-79
2022/07/02 02:29:46;;;;;;;30.92;6.70;;;9.90;99.90;;;;;;4837212;29;20054;-79
2022/07/02 02:32:14;;;;;;;4.55;3.22;;;9.90;99.90;;;;;;4839424;29;20412;-78
2022/07/02 02:34:42;;;;;;;9.32;3.90;;;10.00;99.90;;;;;;4839942;29;20046;-82
2022/07/02 02:37:10;;;;;;;9.80;3.35;;;10.00;99.90;;;;;;4824026;29;20069;-79
2022/07/02 02:39:38;;;;;;;4.10;3.38;;;10.00;99.90;;;;;;4838427;29;20050;-79
2022/07/02 02:42:06;;;;;;;5.30;3.65;;;10.10;99.90;;;;;;4838903;29;20057;-79
2022/07/02 02:44:34;;;;;;;14.52;4.90;;;10.10;99.90;;;;;;4838077;29;20061;-79
2022/07/02 02:47:06;;;;;;;5.28;3.28;;;10.10;99.90;;;;;;4838944;29;20057;-78
2022/07/02 02:49:33;;;;;;;17.48;4.57;;;10.10;99.90;;;;;;4852518;29;20607;-78
2022/07/02 02:52:01;;;;;;;15.60;6.03;;;10.10;99.90;;;;;;4839530;29;20492;-78
2022/07/02 02:54:30;;;;;;;16.77;6.20;;;10.10;99.90;;;;;;4852645;29;20061;-78
2022/07/02 02:56:58;;;;;;;11.77;4.07;;;10.10;99.90;;;;;;4839219;29;20057;-78
2022/07/02 02:59:26;;;;;;;32.17;6.22;;;10.10;99.90;;;;;;4838632;29;20046;-78
2022/07/02 03:01:54;;;;;;;7.07;4.07;;;10.10;99.90;;;;;;4852792;29;20046;-78
2022/07/02 03:04:22;;;;;;;2.22;2.10;;;10.10;99.90;;;;;;4853284;29;20052;-78
2022/07/02 03:06:50;;;;;;;3.70;2.78;;;10.10;99.90;;;;;;4823295;29;20871;-78
2022/07/02 03:09:18;;;;;;;2.55;2.13;;;10.10;99.90;;;;;;4835184;29;20062;-78
2022/07/02 03:11:46;;;;;;;2.85;2.65;;;10.10;99.90;;;;;;4833782;29;20069;-78
2022/07/02 03:14:14;;;;;;;11.68;5.00;;;10.10;99.90;;;;;;4820384;29;20057;-79
2022/07/02 03:16:44;;;;;;;18.35;5.88;;;10.10;99.90;;;;;;4834667;29;20489;-78
2022/07/02 03:19:18;;;;;;;3.15;2.72;;;10.10;99.90;;;;;;4847093;29;20046;-79
2022/07/02 03:21:46;;;;;;;3.78;2.85;;;10.10;99.90;;;;;;4849275;29;20051;-78
2022/07/02 03:24:15;;;;;;;3.95;3.53;;;10.10;99.90;;;;;;4850093;29;20054;-78
2022/07/02 03:26:43;;;;;;;3.03;2.72;;;10.10;99.90;;;;;;4819517;29;20062;-79
2022/07/02 03:29:16;;;;;;;5.32;3.47;;;10.10;99.90;;;;;;4853359;29;20058;-78
2022/07/02 03:31:55;;;;;;;4.78;4.30;;;10.20;99.90;;;;;;4836295;29;20085;-79
2022/07/02 03:34:23;;;;;;;5.45;3.83;;;10.20;99.90;;;;;;4823420;29;20057;-79
2022/07/02 03:36:51;;;;;;;3.97;2.95;;;10.20;99.90;;;;;;4853135;29;20054;-79
2022/07/02 03:39:19;;;;;;;3.60;3.28;;;10.30;99.90;;;;;;4823065;29;20054;-78
2022/07/02 03:41:47;;;;;;;9.90;4.43;;;10.30;99.90;;;;;;4837005;29;20053;-79
2022/07/02 03:44:14;;;;;;;3.03;2.78;;;10.30;99.90;;;;;;4823920;29;20639;-79
2022/07/02 03:46:42;;;;;;;26.13;6.55;;;10.30;99.90;;;;;;4823066;29;20046;-78
2022/07/02 03:49:10;;;;;;;3.60;2.85;;;10.40;99.90;;;;;;4823097;29;20508;-79
2022/07/02 03:51:38;;;;;;;4.07;3.63;;;10.40;99.90;;;;;;4822786;29;20050;-79
2022/07/02 03:54:06;;;;;;;5.57;3.83;;;10.40;99.90;;;;;;4823288;29;20079;-79
2022/07/02 03:56:34;;;;;;;25.10;6.80;;;10.40;99.90;;;;;;4852105;29;20058;-79
2022/07/02 03:59:02;;;;;;;14.60;5.38;;;10.40;99.90;;;;;;4851557;29;20615;-79
2022/07/02 04:01:30;;;;;;;9.98;3.42;;;10.40;99.90;;;;;;4823239;29;20065;-79
2022/07/02 04:04:00;;;;;;;10.23;3.70;;;10.40;99.90;;;;;;4836523;29;20386;-79
2022/07/02 04:06:32;;;;;;;2.47;2.28;;;10.40;99.90;;;;;;4836647;29;20046;-79
2022/07/02 04:09:00;;;;;;;14.27;4.95;;;10.40;99.90;;;;;;4839634;29;20276;-79
2022/07/02 04:11:28;;;;;;;31.73;7.35;;;10.40;99.90;;;;;;4840735;29;20061;-79
2022/07/02 04:14:28;;;;;;;23.08;4.25;;;10.50;99.90;;;;;;4841320;29;20054;-79
2022/07/02 04:16:56;;;;;;;5.25;2.55;;;10.50;99.90;;;;;;4841497;29;20054;-79
2022/07/02 04:19:24;;;;;;;19.10;7.88;;;10.50;99.90;;;;;;4839360;29;20057;-78
2022/07/02 04:21:52;;;;;;;14.13;5.32;;;10.50;99.90;;;;;;4841035;29;20058;-79
2022/07/02 04:24:20;;;;;;;54.05;9.50;;;10.60;99.90;;;;;;4841750;29;20061;-79
2022/07/02 04:26:47;;;;;;;13.32;4.15;;;10.50;99.90;;;;;;4840728;29;20058;-79
2022/07/02 04:29:15;;;;;;;26.77;6.43;;;10.40;99.90;;;;;;4841019;29;20062;-79
2022/07/02 04:31:43;;;;;;;54.88;13.38;;;10.50;99.90;;;;;;4839970;29;20504;-79
2022/07/02 04:34:16;;;;;;;36.10;8.50;;;10.50;99.90;;;;;;4839737;29;20072;-79
2022/07/02 04:36:54;;;;;;;34.30;7.15;;;10.60;99.90;;;;;;4841664;29;20064;-79
2022/07/02 04:39:22;;;;;;;60.40;13.25;;;10.60;99.90;;;;;;4839478;29;20050;-79
2022/07/02 04:41:50;;;;;;;51.15;10.68;;;10.70;99.90;;;;;;4840780;29;20050;-79
2022/07/02 04:44:18;;;;;;;63.53;11.07;;;10.70;99.90;;;;;;4840796;29;20061;-78
2022/07/02 04:46:46;;;;;;;32.10;9.02;;;10.80;99.90;;;;;;4837965;29;20046;-79
2022/07/02 04:49:14;;;;;;;116.97;21.17;;;10.80;99.90;;;;;;4839743;29;20453;-79
2022/07/02 04:51:42;;;;;;;46.25;5.20;;;10.80;99.90;;;;;;4824029;29;20077;-79
2022/07/02 04:54:10;;;;;;;57.47;13.15;;;10.80;99.90;;;;;;4840680;29;20496;-80
2022/07/02 04:56:38;;;;;;;45.88;10.30;;;10.80;99.90;;;;;;4824884;29;20058;-79
2022/07/02 04:59:06;;;;;;;29.48;9.77;;;10.90;99.90;;;;;;4834370;29;20065;-79
2022/07/02 05:01:34;;;;;;;5.85;3.08;;;10.90;99.90;;;;;;4842308;29;20397;-79
2022/07/02 05:04:02;;;;;;;17.92;6.40;;;10.90;99.90;;;;;;4823359;29;20081;-79
2022/07/02 05:06:31;;;;;;;5.10;3.53;;;11.00;99.90;;;;;;4822373;29;20050;-80
2022/07/02 05:09:04;;;;;;;42.03;8.60;;;11.20;99.90;;;;;;4837536;29;20217;-80
2022/07/02 05:11:32;;;;;;;33.42;6.55;;;11.10;99.90;;;;;;4822600;29;20426;-80
2022/07/02 05:14:03;;;;;;;20.42;7.13;;;11.20;99.90;;;;;;4822990;29;20583;-80
2022/07/02 05:16:31;;;;;;;30.50;8.75;;;11.30;99.90;;;;;;4822183;29;20055;-80
2022/07/02 05:18:59;;;;;;;110.32;19.95;;;11.30;99.90;;;;;;4836163;29;20129;-80
2022/07/02 05:21:26;;;;;;;54.90;12.00;;;11.30;99.90;;;;;;4821882;29;20047;-79
2022/07/02 05:23:54;;;;;;;29.10;7.25;;;11.20;99.90;;;;;;4821747;29;20050;-80
2022/07/02 05:26:22;;;;;;;55.47;10.93;;;11.20;99.90;;;;;;4834953;29;20062;-78
2022/07/02 05:28:50;;;;;;;63.10;15.88;;;11.30;99.90;;;;;;4822421;29;20073;-86
2022/07/02 05:31:18;;;;;;;54.78;9.05;;;11.40;99.90;;;;;;4837401;29;20054;-86
2022/07/02 05:33:46;;;;;;;30.30;9.70;;;11.50;99.90;;;;;;4822710;29;20054;-86
2022/07/02 05:36:14;;;;;;;38.40;6.70;;;11.50;99.90;;;;;;4825572;29;20049;-86
2022/07/02 05:38:42;;;;;;;140.85;19.25;;;11.60;99.90;;;;;;4825040;29;20057;-86
2022/07/02 05:41:12;;;;;;;25.80;6.28;;;11.60;99.90;;;;;;4855674;29;20050;-86
2022/07/02 05:43:51;;;;;;;52.85;10.45;;;11.60;99.90;;;;;;4856115;29;20042;-86
2022/07/02 05:46:19;;;;;;;20.52;8.43;;;11.80;99.90;;;;;;4838729;29;20911;-87
2022/07/02 05:48:46;;;;;;;46.05;9.30;;;11.90;99.90;;;;;;4822917;29;20049;-86
2022/07/02 05:51:16;;;;;;;36.55;7.57;;;11.90;99.90;;;;;;4822535;29;20106;-87
2022/07/02 05:53:44;;;;;;;31.90;11.65;;;11.80;99.90;;;;;;4840703;29;20045;-87
2022/07/02 05:56:12;;;;;;;75.20;16.67;;;11.80;99.90;;;;;;4826605;29;20054;-87
2022/07/02 05:58:40;;;;;;;5.63;4.20;;;11.80;99.90;;;;;;4823326;29;20069;-88
2022/07/02 06:01:08;;;;;;;4.97;2.35;;;11.80;99.90;;;;;;4825784;29;20057;-88
2022/07/02 06:03:36;;;;;;;3.05;2.55;;;11.80;99.90;;;;;;4845674;29;20046;-87
2022/07/02 06:08:50;;;;;;;50.67;6.82;;;11.80;99.90;;;;;;4830033;29;20500;-88
2022/07/02 06:11:18;;;;;;;2.22;1.92;;;11.80;99.90;;;;;;4825377;29;20053;-86
2022/07/02 06:13:50;;;;;;;2.50;2.17;;;11.90;99.90;;;;;;4825268;29;20061;-87
2022/07/02 06:16:18;;;;;;;10.82;2.83;;;12.00;99.90;;;;;;4826196;29;20046;-87
2022/07/02 06:18:46;;;;;;;3.97;2.20;;;12.00;99.90;;;;;;4825420;29;20061;-87
2022/07/02 06:21:17;;;;;;;2.75;2.50;;;12.00;99.90;;;;;;4825711;29;20069;-88
2022/07/02 06:23:54;;;;;;;2.58;2.38;;;12.00;99.90;;;;;;4840605;29;20400;-91
2022/07/02 06:26:22;;;;;;;3.10;2.70;;;11.90;99.90;;;;;;4825794;29;20523;-87
2022/07/02 06:28:52;;;;;;;5.32;2.97;;;12.20;99.90;;;;;;4855906;29;20061;-87
2022/07/02 06:31:26;;;;;;;3.78;2.75;;;12.30;99.90;;;;;;4840037;29;20045;-90
2022/07/02 06:34:01;;;;;;;2.85;2.65;;;12.40;99.90;;;;;;4841480;29;20061;-92
2022/07/02 06:36:29;;;;;;;3.42;3.13;;;12.50;99.90;;;;;;4841645;29;20062;-87
2022/07/02 06:38:57;;;;;;;4.20;3.90;;;12.50;99.90;;;;;;4827542;29;20046;-89
2022/07/02 06:44:38;;;;;;;4.93;3.25;;;12.60;99.90;;;;;;4848149;29;20057;-87
2022/07/02 06:47:06;;;;;;;4.00;3.70;;;12.60;99.90;;;;;;4836896;29;20658;-90
2022/07/02 06:49:34;;;;;;;3.33;3.03;;;12.60;99.90;;;;;;4840747;29;20050;-88
2022/07/02 06:52:02;;;;;;;3.03;2.55;;;12.50;99.90;;;;;;4842276;29;20045;-92
2022/07/02 06:54:34;;;;;;;3.33;3.05;;;12.50;99.90;;;;;;4846409;29;20049;-89
2022/07/02 06:57:14;;;;;;;3.50;3.05;;;12.60;99.90;;;;;;4830315;29;20057;-89
2022/07/02 07:00:10;;;;;;;3.25;2.95;;;12.50;99.90;;;;;;4823346;29;20046;-89
2022/07/02 07:03:04;;;;;;;3.30;2.75;;;12.40;99.90;;;;;;4838869;29;20046;-91
2022/07/02 07:05:47;;;;;;;3.63;2.92;;;12.30;99.90;;;;;;4840959;29;20077;-92
2022/07/02 07:09:07;;;;;;;3.05;2.85;;;12.40;99.90;;;;;;4825764;29;20062;-92
2022/07/02 07:11:36;;;;;;;4.72;3.72;;;12.40;99.90;;;;;;4830509;29;20062;-91
2022/07/02 07:19:21;;;;;;;4.22;3.83;;;12.40;99.90;;;;;;4854978;29;20060;-93
2022/07/02 07:22:46;;;;;;;2.40;2.17;;;12.60;99.90;;;;;;4865592;29;20381;-93
2022/07/02 07:26:12;;;;;;;;;;;;;;;;;;;;;
2022/07/02 07:29:58;;;;;;;4.13;3.72;;;13.00;99.90;;;;;;4772057;30;20051;-93
2022/07/02 07:54:08;;;;;;;5.82;5.25;;;14.30;99.90;;;;;;4761197;30;20057;-94
2022/07/02 07:57:07;;;;;;;5.07;4.57;;;14.20;99.90;;;;;;4754271;30;20515;-92
2022/07/02 08:00:21;;;;;;;7.25;5.97;;;14.50;99.90;;;;;;4817952;29;20064;-92
2022/07/02 08:03:34;;;;;;;6.43;5.83;;;14.80;99.90;;;;;;4841207;29;20058;-88
2022/07/02 08:06:27;;;;;;;5.15;4.70;;;15.10;99.90;;;;;;4750864;29;20048;-88
2022/07/02 08:09:42;;;;;;;4.93;4.30;;;15.20;99.90;;;;;;4754679;30;20048;-91
2022/07/02 08:13:13;;;;;;;5.55;5.00;;;15.50;99.90;;;;;;4752107;29;20071;-90
2022/07/02 08:15:55;;;;;;;5.07;4.68;;;15.60;99.90;;;;;;4840453;29;20052;-89
2022/07/02 08:19:05;;;;;;;3.80;3.45;;;15.60;99.90;;;;;;4856133;29;20855;-89
2022/07/02 08:21:47;;;;;;;5.38;3.72;;;15.80;99.90;;;;;;4878076;29;20057;-87
2022/07/02 08:25:07;;;;;;;6.03;3.90;;;16.10;99.90;;;;;;4870766;29;20056;-90
2022/07/02 08:28:56;;;;;;;4.20;3.80;;;16.30;99.90;;;;;;4823789;29;20777;-88
2022/07/02 08:32:18;;;;;;;;;;;;;;;;;;;;;
2022/07/02 08:36:55;;;;;;;3.95;2.65;;;16.60;99.90;;;;;;4745452;30;20094;-88
2022/07/02 08:39:43;;;;;;;4.13;3.25;;;16.60;99.90;;;;;;4736888;30;20055;-89
2022/07/02 08:43:25;;;;;;;2.80;2.22;;;16.60;99.90;;;;;;4699470;30;20064;-88
2022/07/02 08:46:53;;;;;;;4.07;2.67;;;16.70;99.90;;;;;;4685417;30;20074;-87
2022/07/02 08:50:31;;;;;;;4.78;4.38;;;16.90;99.90;;;;;;4678261;30;20387;-88
2022/07/02 08:53:27;;;;;;;3.30;3.00;;;16.90;99.90;;;;;;4694289;30;20061;-87
2022/07/02 08:56:25;;;;;;;2.67;2.47;;;16.90;99.90;;;;;;4699877;30;20147;-83
2022/07/02 09:02:58;;;;;;;2.95;2.30;;;17.00;99.90;;;;;;4720774;30;20049;-85
2022/07/02 09:05:53;;;;;;;3.30;2.50;;;17.10;99.90;;;;;;4726073;30;20111;-83
2022/07/02 09:09:19;;;;;;;2.80;2.30;;;17.20;99.90;;;;;;4774907;29;20058;-86
2022/07/02 09:11:54;;;;;;;3.83;2.40;;;17.20;99.90;;;;;;4769596;29;20054;-84
2022/07/02 09:14:33;;;;;;;3.17;2.83;;;17.40;99.90;;;;;;4771027;29;20062;-82
2022/07/02 09:17:02;;;;;;;4.15;3.13;;;17.30;99.90;;;;;;4800784;29;20532;-84
2022/07/02 09:19:43;;;;;;;7.47;3.42;;;17.40;99.90;;;;;;4784785;29;20409;-82
2022/07/02 09:22:18;;;;;;;3.70;3.25;;;17.50;99.90;;;;;;4842818;29;20049;-81
2022/07/02 09:25:15;;;;;;;3.88;3.35;;;17.50;99.90;;;;;;4826580;29;20054;-81
2022/07/02 09:27:57;;;;;;;3.85;3.50;;;17.60;99.90;;;;;;4833627;29;20057;-84
2022/07/02 09:30:58;;;;;;;4.05;3.72;;;17.70;99.90;;;;;;4823154;29;20042;-83
2022/07/02 09:33:52;;;;;;;;;;;;;;;;;;;;;
2022/07/02 09:37:52;;;;;;;4.00;3.65;;;17.70;99.90;;;;;;4858554;29;19931;-87
2022/07/02 09:40:20;;;;;;;1.65;1.55;;;17.70;99.90;;;;;;4811806;29;20047;-82
2022/07/02 09:42:56;;;;;;;2.38;2.17;;;17.80;99.90;;;;;;4837313;29;20050;-88
2022/07/02 09:46:12;;;;;;;1.75;1.65;;;17.90;99.90;;;;;;4822841;29;20057;-87
2022/07/02 09:48:50;;;;;;;1.27;1.20;;;17.90;99.90;;;;;;4821241;29;20058;-88
2022/07/02 09:51:26;;;;;;;3.15;1.55;;;17.90;99.90;;;;;;4822984;29;20046;-87
2022/07/02 09:54:10;;;;;;;1.90;1.80;;;17.90;99.90;;;;;;4837335;29;20058;-85
2022/07/02 09:57:37;;;;;;;1.25;0.90;;;18.00;99.90;;;;;;4811203;29;20050;-87
2022/07/02 10:00:09;;;;;;;2.47;1.40;;;18.10;99.90;;;;;;4851319;29;20413;-82
2022/07/02 10:02:56;;;;;;;1.52;1.33;;;18.10;99.90;;;;;;4822969;29;20456;-85
2022/07/02 10:06:01;;;;;;;1.92;1.80;;;18.20;99.90;;;;;;4815564;29;20070;-84
2022/07/02 10:08:50;;;;;;;1.98;1.80;;;18.30;99.90;;;;;;4850820;29;20057;-79
2022/07/02 10:11:32;;;;;;;2.40;1.38;;;18.40;99.90;;;;;;4840960;29;20408;-84
2022/07/02 10:14:00;;;;;;;1.88;1.77;;;18.40;99.90;;;;;;4826585;29;20054;-86
2022/07/02 10:16:32;;;;;;;1.40;1.30;;;18.50;99.90;;;;;;4856276;29;20058;-86
2022/07/02 10:19:21;;;;;;;2.00;1.00;;;18.50;99.90;;;;;;4840279;29;20049;-84
2022/07/02 10:21:52;;;;;;;2.15;1.00;;;18.50;99.90;;;;;;4822732;29;20526;-85
2022/07/02 10:24:32;;;;;;;3.13;1.10;;;18.50;99.90;;;;;;4823553;29;20417;-84
2022/07/02 10:27:01;;;;;;;4.15;1.38;;;18.50;99.90;;;;;;4822135;29;20053;-86
2022/07/02 10:29:33;;;;;;;1.20;1.10;;;18.60;99.90;;;;;;4822461;29;20058;-83
2022/07/02 10:32:38;;;;;;;1.20;1.10;;;18.70;99.90;;;;;;4822653;29;20055;-85
2022/07/02 10:35:11;;;;;;;2.72;0.82;;;18.70;99.90;;;;;;4837121;29;20069;-85
2022/07/02 10:37:40;;;;;;;0.85;0.80;;;18.70;99.90;;;;;;4837516;29;20065;-88
2022/07/02 10:40:32;;;;;;;0.70;0.70;;;18.80;99.90;;;;;;4846227;29;20823;-87
2022/07/02 10:43:30;;;;;;;;;;;;;;;;;;;;;
2022/07/02 10:47:31;;;;;;;0.73;0.73;;;18.90;99.90;;;;;;4810836;29;20055;-82
2022/07/02 10:50:24;;;;;;;0.60;0.60;;;19.10;99.90;;;;;;4823671;29;20054;-88
2022/07/02 10:52:54;;;;;;;0.93;0.88;;;19.10;99.90;;;;;;4824829;29;20062;-85
2022/07/02 10:56:02;;;;;;;;;;;;;;;;;;;;;
2022/07/02 10:59:50;;;;;;;1.45;1.35;;;19.10;99.90;;;;;;4787982;29;20058;-83
2022/07/02 11:03:34;;;;;;;1.50;1.40;;;19.20;99.90;;;;;;4797038;29;20054;-89
2022/07/02 11:06:14;;;;;;;4.53;1.08;;;19.30;99.90;;;;;;4799804;29;20050;-85
2022/07/02 11:08:46;;;;;;;0.88;0.88;;;19.50;99.90;;;;;;4822236;29;20066;-86
2022/07/02 11:11:46;;;;;;;2.25;1.00;;;19.70;99.90;;;;;;4807775;29;20784;-86
2022/07/02 11:14:17;;;;;;;1.63;0.85;;;19.60;99.90;;;;;;4823079;29;20057;-84
2022/07/02 11:16:48;;;;;;;1.30;1.20;;;19.60;99.90;;;;;;4823023;29;20051;-86
2022/07/02 11:19:29;;;;;;;;;;;19.60;99.90;;;;;;4822657;29;20057;-86
2022/07/02 11:21:59;;;;;;;1.08;0.70;;;19.60;99.90;;;;;;4837751;29;19925;-85
2022/07/02 11:24:34;;;;;;;0.75;0.75;;;19.60;99.90;;;;;;4824278;29;20062;-86
2022/07/02 11:27:33;;;;;;;0.98;0.93;;;19.60;99.90;;;;;;4824438;29;20058;-90
2022/07/02 11:30:02;;;;;;;3.53;0.77;;;19.70;99.90;;;;;;4820771;29;20061;-84
2022/07/02 11:32:37;;;;;;;5.15;1.70;;;19.70;99.90;;;;;;4848682;29;20582;-84
2022/07/02 11:35:05;;;;;;;2.25;0.80;;;19.70;99.90;;;;;;4867689;29;20046;-88
2022/07/02 11:37:33;;;;;;;0.77;0.73;;;19.80;99.90;;;;;;4857316;29;20049;-83
2022/07/02 11:40:02;;;;;;;7.88;1.33;;;19.90;99.90;;;;;;4857400;29;20514;-82
2022/07/02 11:42:36;;;;;;;0.88;0.88;;;20.00;99.90;;;;;;4847414;29;20057;-86
2022/07/02 11:45:45;;;;;;;2.25;1.20;;;20.00;99.90;;;;;;4843410;29;20050;-88
2022/07/02 11:48:21;;;;;;;1.00;0.93;;;20.00;99.90;;;;;;4855290;29;20058;-84
2022/07/02 11:50:59;;;;;;;1.13;1.02;;;20.10;99.90;;;;;;4843364;29;20424;-80
2022/07/02 11:53:36;;;;;;;0.82;0.82;;;20.10;99.90;;;;;;4826985;29;20046;-85
2022/07/02 11:56:10;;;;;;;1.75;1.35;;;20.10;99.90;;;;;;4827942;29;20054;-87
2022/07/02 11:58:46;;;;;;;1.20;1.10;;;20.20;99.90;;;;;;4841858;29;20057;-87
2022/07/02 12:01:22;;;;;;;1.27;1.17;;;20.20;99.90;;;;;;4842187;29;20496;-82
2022/07/02 12:04:11;;;;;;;1.52;1.17;;;20.30;99.90;;;;;;4853053;29;20057;-88
2022/07/02 12:06:44;;;;;;;1.25;1.15;;;20.30;99.90;;;;;;4824789;29;20042;-89
2022/07/02 12:09:14;;;;;;;0.80;0.80;;;20.30;99.90;;;;;;4841661;29;20056;-88
2022/07/02 12:11:45;;;;;;;1.20;1.10;;;20.40;99.90;;;;;;4842554;29;20833;-83
2022/07/02 12:14:14;;;;;;;;;;;20.30;99.90;;;;;;4842943;29;20054;-83
2022/07/02 12:16:45;;;;;;;1.25;1.10;;;20.50;99.90;;;;;;4843036;29;20612;-88
2022/07/02 12:19:15;;;;;;;0.88;0.85;;;20.60;99.90;;;;;;4841952;29;20054;-85
2022/07/02 12:21:49;;;;;;;2.95;0.98;;;20.70;99.90;;;;;;4841193;29;20669;-87
2022/07/02 12:24:31;;;;;;;1.92;0.93;;;20.60;99.90;;;;;;4840845;29;20042;-86
2022/07/02 12:27:04;;;;;;;2.03;0.77;;;20.60;99.90;;;;;;4825540;29;20050;-87
2022/07/02 12:29:53;;;;;;;1.17;1.13;;;20.50;99.90;;;;;;4825980;29;20057;-86
2022/07/02 12:32:24;;;;;;;0.80;0.80;;;20.60;99.90;;;;;;4826128;29;20306;-85
2022/07/02 12:34:57;;;;;;;1.20;1.05;;;20.70;99.90;;;;;;4825379;29;20065;-80
2022/07/02 12:37:30;;;;;;;2.03;1.05;;;20.80;99.90;;;;;;4842332;29;20815;-83
2022/07/02 12:40:00;;;;;;;1.25;1.23;;;20.80;99.90;;;;;;4841081;29;20054;-80
2022/07/02 12:42:31;;;;;;;2.75;0.85;;;20.80;99.90;;;;;;4845247;29;20046;-85
2022/07/02 12:45:03;;;;;;;1.20;1.15;;;20.80;99.90;;;;;;4841483;29;20065;-84
2022/07/02 12:47:35;;;;;;;1.27;1.13;;;20.80;99.90;;;;;;4835725;29;20050;-84
2022/07/02 12:50:14;;;;;;;8.57;2.75;;;20.90;99.90;;;;;;4855912;29;20053;-84
2022/07/02 12:52:56;;;;;;;5.25;1.35;;;21.00;99.90;;;;;;4842659;29;20396;-83
2022/07/02 12:55:27;;;;;;;0.70;0.65;;;21.00;99.90;;;;;;4840092;29;20049;-84
2022/07/02 12:58:02;;;;;;;1.13;1.08;;;21.10;99.90;;;;;;4840415;29;20057;-84
2022/07/02 13:00:32;;;;;;;5.07;3.92;;;21.10;99.90;;;;;;4854861;29;20058;-83
2022/07/02 13:03:11;;;;;;;14.93;3.63;;;21.10;99.90;;;;;;4843833;29;20065;-84
2022/07/02 13:05:51;;;;;;;0.75;0.75;;;21.00;99.90;;;;;;4840824;29;20049;-82
2022/07/02 13:08:23;;;;;;;1.38;1.30;;;21.00;99.90;;;;;;4828652;29;20405;-84
2022/07/02 13:10:58;;;;;;;1.10;0.80;;;21.00;99.90;;;;;;4850242;29;20504;-84
2022/07/02 13:13:31;;;;;;;0.90;0.77;;;21.20;99.90;;;;;;4824185;29;20050;-86
2022/07/02 13:16:04;;;;;;;0.80;0.80;;;21.20;99.90;;;;;;4822320;29;20556;-86
2022/07/02 13:18:33;;;;;;;0.80;0.80;;;21.30;99.90;;;;;;4837152;29;20058;-85
2022/07/02 13:21:01;;;;;;;7.68;0.77;;;21.30;99.90;;;;;;4844170;29;20050;-84
2022/07/02 13:23:29;;;;;;;0.80;0.75;;;21.30;99.90;;;;;;4835886;29;20514;-81
2022/07/02 13:25:57;;;;;;;0.50;0.50;;;21.30;99.90;;;;;;4832059;29;20038;-82
2022/07/02 13:28:26;;;;;;;0.98;0.98;;;21.30;99.90;;;;;;4841649;29;20041;-83
2022/07/02 13:30:53;;;;;;;1.52;1.42;;;21.30;99.90;;;;;;4841086;29;20388;-84
2022/07/02 13:33:21;;;;;;;0.80;0.73;;;21.30;99.90;;;;;;4842179;29;20423;-86
2022/07/02 13:35:49;;;;;;;0.73;0.70;;;21.30;99.90;;;;;;4841737;29;20065;-83
2022/07/02 13:38:17;;;;;;;0.57;0.57;;;21.40;99.90;;;;;;4841293;29;20053;-84
2022/07/02 13:40:45;;;;;;;0.70;0.70;;;21.30;99.90;;;;;;4841313;29;20058;-81
2022/07/02 13:43:13;;;;;;;0.77;0.77;;;21.30;99.90;;;;;;4855027;29;20049;-82
2022/07/02 13:45:51;;;;;;;0.60;0.60;;;21.30;99.90;;;;;;4855814;29;20050;-84
2022/07/02 13:48:19;;;;;;;0.55;0.55;;;21.30;99.90;;;;;;4855713;29;20499;-85
2022/07/02 13:50:49;;;;;;;1.17;0.98;;;21.40;99.90;;;;;;4854703;29;20042;-78
2022/07/02 13:53:16;;;;;;;0.75;0.75;;;21.40;99.90;;;;;;4841537;29;20060;-87
2022/07/02 13:55:45;;;;;;;1.05;0.73;;;21.40;99.90;;;;;;4838879;29;20054;-84
2022/07/02 13:58:16;;;;;;;0.75;0.75;;;21.40;99.90;;;;;;4839945;29;20076;-85
2022/07/02 14:00:45;;;;;;;1.08;1.00;;;21.40;99.90;;;;;;4850360;29;20058;-85
2022/07/02 14:03:13;;;;;;;0.93;0.75;;;21.60;99.90;;;;;;4839637;29;20054;-86
2022/07/02 14:05:44;;;;;;;0.75;0.75;;;21.60;99.90;;;;;;4839611;29;20072;-89
2022/07/02 14:08:13;;;;;;;1.27;0.70;;;21.70;99.90;;;;;;4840609;29;20049;-86
2022/07/02 14:10:49;;;;;;;11.15;1.77;;;21.80;99.90;;;;;;4840532;29;20053;-93
2022/07/02 14:13:25;;;;;;;0.93;0.93;;;21.80;99.90;;;;;;4858170;29;20088;-87
2022/07/02 14:16:20;;;;;;;1.15;0.85;;;21.80;99.90;;;;;;4830152;29;20829;-88
2022/07/02 14:18:49;;;;;;;0.55;0.52;;;21.80;99.90;;;;;;4855391;29;20046;-89
2022/07/02 14:21:23;;;;;;;3.28;0.77;;;21.70;99.90;;;;;;4841697;29;20050;-90
2022/07/02 14:24:00;;;;;;;0.95;0.95;;;21.70;99.90;;;;;;4840276;29;20800;-90